Time;durP1;ratioP1;P1;durP2;ratioP2;P2;SDS_P1;SDS_P2;PMS_P1;PMS_P2;Temp;Humidity;BMP_temperature;BMP_pressure;BME280_temperature;BME280_humidity;BME280_pressure;Samples;Min_cycle;Max_cycle;Signal;HPM_P1;HPM_P2
2022/09/28 00:02:24;;;;;;;1999.90;999.90;;;10.20;99.90;;;;;;5071205;28;21022;-71
2022/09/28 00:04:52;;;;;;;1999.90;999.90;;;10.30;99.90;;;;;;5070270;28;20458;-74
2022/09/28 00:07:19;;;;;;;1999.90;999.90;;;10.30;99.90;;;;;;5071253;28;20486;-73
2022/09/28 00:09:45;;;;;;;1999.90;999.90;;;10.30;99.90;;;;;;5071604;28;20476;-74
2022/09/28 00:12:12;;;;;;;1999.90;999.90;;;10.20;99.90;;;;;;5071336;28;20523;-74
2022/09/28 00:14:41;;;;;;;1999.90;999.90;;;10.20;99.90;;;;;;5068879;28;20519;-71
2022/09/28 00:17:08;;;;;;;1999.90;999.90;;;10.30;99.90;;;;;;5070487;28;20847;-74
2022/09/28 00:19:35;;;;;;;1999.90;999.90;;;10.30;99.90;;;;;;5069087;28;20908;-74
2022/09/28 00:22:03;;;;;;;1999.90;999.90;;;10.30;99.90;;;;;;5071531;28;20468;-74
2022/09/28 00:24:32;;;;;;;1999.90;999.90;;;10.30;99.90;;;;;;5067829;28;20461;-70
2022/09/28 00:27:01;;;;;;;1999.90;999.90;;;10.20;99.90;;;;;;5069368;28;20907;-73
2022/09/28 00:29:30;;;;;;;1999.90;999.90;;;10.30;99.90;;;;;;5069777;28;20489;-73
2022/09/28 00:32:01;;;;;;;1999.90;999.90;;;10.20;99.90;;;;;;5068960;28;20579;-74
2022/09/28 00:34:30;;;;;;;1999.90;999.90;;;10.10;99.90;;;;;;5066541;28;20485;-72
2022/09/28 00:36:57;;;;;;;1999.90;999.90;;;10.00;99.90;;;;;;5068353;28;20465;-75
2022/09/28 00:39:25;;;;;;;1999.90;999.90;;;10.00;99.90;;;;;;5068614;28;20519;-71
2022/09/28 00:41:53;;;;;;;1999.90;999.90;;;10.20;99.90;;;;;;5068878;28;20523;-74
2022/09/28 00:44:35;;;;;;;1999.90;999.90;;;9.80;99.90;;;;;;5069336;28;20560;-73
2022/09/28 00:47:08;;;;;;;1999.90;999.90;;;9.70;99.90;;;;;;5070838;28;20587;-73
2022/09/28 00:49:40;;;;;;;1999.90;999.90;;;9.60;99.90;;;;;;5070833;28;20484;-73
2022/09/28 00:52:12;;;;;;;1999.90;999.90;;;9.60;99.90;;;;;;5068258;28;20493;-74
2022/09/28 00:54:42;;;;;;;1999.90;999.90;;;9.50;99.90;;;;;;5068583;28;20476;-73
2022/09/28 00:57:12;;;;;;;1999.90;999.90;;;9.60;99.90;;;;;;5071405;28;20516;-72
2022/09/28 00:59:40;;;;;;;1999.90;999.90;;;9.50;99.90;;;;;;5071909;28;20484;-72
2022/09/28 01:02:09;;;;;;;1999.90;999.90;;;9.50;99.90;;;;;;5073474;28;20484;-73
2022/09/28 01:04:36;;;;;;;1999.90;999.90;;;9.40;99.90;;;;;;5068413;28;20896;-73
2022/09/28 01:07:03;;;;;;;1999.90;999.90;;;9.40;99.90;;;;;;5070456;28;20810;-73
2022/09/28 01:09:30;;;;;;;1999.90;999.90;;;9.40;99.90;;;;;;5066667;28;20489;-73
2022/09/28 01:11:58;;;;;;;1999.90;999.90;;;9.30;99.90;;;;;;5071304;28;20465;-71
2022/09/28 01:14:25;;;;;;;1999.90;999.90;;;9.10;99.90;;;;;;5068541;28;20477;-69
2022/09/28 01:17:03;;;;;;;1999.90;999.90;;;9.10;99.90;;;;;;5070599;28;20469;-74
2022/09/28 01:19:47;;;;;;;1999.90;999.90;;;9.00;99.90;;;;;;5068745;28;20481;-70
2022/09/28 01:22:27;;;;;;;1999.90;999.90;;;9.00;99.90;;;;;;5070457;28;20465;-71
2022/09/28 01:25:01;;;;;;;1999.90;999.90;;;9.10;99.90;;;;;;5068957;28;20462;-74
2022/09/28 01:27:33;;;;;;;1999.90;999.90;;;9.10;99.90;;;;;;5069705;28;20487;-72
2022/09/28 01:30:06;;;;;;;1999.90;999.90;;;9.10;99.90;;;;;;5070071;28;20485;-71
2022/09/28 01:32:43;;;;;;;1999.90;999.90;;;9.00;99.90;;;;;;5067739;28;20839;-72
2022/09/28 01:35:14;;;;;;;1999.90;999.90;;;9.00;99.90;;;;;;5067409;28;20469;-73
2022/09/28 01:37:47;;;;;;;1999.90;999.90;;;9.10;99.90;;;;;;5069031;28;20903;-72
2022/09/28 01:40:15;;;;;;;1999.90;999.90;;;9.10;99.90;;;;;;5070116;28;20480;-71
2022/09/28 01:42:46;;;;;;;1999.90;999.90;;;9.00;99.90;;;;;;5068875;28;20461;-72
2022/09/28 01:45:18;;;;;;;1999.90;999.90;;;9.10;99.90;;;;;;5068208;28;20457;-74
2022/09/28 01:47:46;;;;;;;1999.90;999.90;;;9.20;99.90;;;;;;5068016;28;20555;-72
2022/09/28 01:50:16;;;;;;;1999.90;999.90;;;9.20;99.90;;;;;;5070968;28;20497;-73
2022/09/28 01:52:50;;;;;;;1999.90;999.90;;;9.20;99.90;;;;;;5067945;28;20461;-76
2022/09/28 01:55:24;;;;;;;1999.90;999.90;;;9.20;99.90;;;;;;5070448;28;20503;-70
2022/09/28 01:57:57;;;;;;;1999.90;999.90;;;9.10;99.90;;;;;;5067830;28;20459;-72
2022/09/28 02:00:25;;;;;;;1999.90;999.90;;;8.90;99.90;;;;;;5071902;28;20453;-73
2022/09/28 02:02:56;;;;;;;1999.90;999.90;;;8.80;99.90;;;;;;5070064;28;20877;-72
2022/09/28 02:05:29;;;;;;;1999.90;999.90;;;8.90;99.90;;;;;;5068467;28;20868;-73
2022/09/28 02:08:02;;;;;;;1999.90;999.90;;;8.90;99.90;;;;;;5070280;28;20856;-72
2022/09/28 02:10:33;;;;;;;1999.90;999.90;;;9.00;99.90;;;;;;5069814;28;20519;-71
2022/09/28 02:13:03;;;;;;;1999.90;999.90;;;9.20;99.90;;;;;;5068387;28;20512;-73
2022/09/28 02:15:37;;;;;;;1999.90;999.90;;;9.30;99.90;;;;;;5066218;28;20507;-71
2022/09/28 02:18:04;;;;;;;1999.90;999.90;;;9.40;99.90;;;;;;5070171;28;20519;-73
2022/09/28 02:20:34;;;;;;;1999.90;999.90;;;9.40;99.90;;;;;;5070618;28;20461;-70
2022/09/28 02:23:02;;;;;;;1999.90;999.90;;;9.30;99.90;;;;;;5068783;28;20485;-72
2022/09/28 02:25:34;;;;;;;1999.90;999.90;;;9.20;99.90;;;;;;5068822;28;20480;-72
2022/09/28 02:28:05;;;;;;;1999.90;999.90;;;9.00;99.90;;;;;;5070561;28;20493;-72
2022/09/28 02:30:33;;;;;;;1999.90;999.90;;;8.90;99.90;;;;;;5071492;28;20481;-74
2022/09/28 02:33:04;;;;;;;1999.90;999.90;;;9.00;99.90;;;;;;5069199;28;21012;-73
2022/09/28 02:35:33;;;;;;;1999.90;999.90;;;9.10;99.90;;;;;;5068955;28;20527;-69
2022/09/28 02:38:00;;;;;;;1999.90;999.90;;;9.10;99.90;;;;;;5068801;28;20462;-73
2022/09/28 02:40:31;;;;;;;1999.90;999.90;;;9.00;99.90;;;;;;5070018;28;20461;-72
2022/09/28 02:43:10;;;;;;;1999.90;999.90;;;9.10;99.90;;;;;;5070222;28;20995;-72
2022/09/28 02:45:47;;;;;;;1999.90;999.90;;;9.20;99.90;;;;;;5068235;28;20479;-72
2022/09/28 02:48:26;;;;;;;1999.90;999.90;;;9.20;99.90;;;;;;5067876;28;20577;-72
2022/09/28 02:51:03;;;;;;;1999.90;999.90;;;9.20;99.90;;;;;;5067344;28;20507;-72
2022/09/28 02:54:02;;;;;;;1999.90;999.90;;;9.30;99.90;;;;;;5077727;28;20461;-72
2022/09/28 02:56:58;;;;;;;1999.90;999.90;;;9.20;99.90;;;;;;5070099;28;20888;-74
2022/09/28 02:59:42;;;;;;;1999.90;999.90;;;9.30;99.90;;;;;;5054861;28;20568;-73
2022/09/28 03:02:20;;;;;;;1999.90;999.90;;;9.40;99.90;;;;;;5069580;28;20492;-73
2022/09/28 03:05:00;;;;;;;1999.90;999.90;;;9.50;99.90;;;;;;5062638;28;20454;-70
2022/09/28 03:07:32;;;;;;;1999.90;999.90;;;9.30;99.90;;;;;;5067142;28;20461;-72
2022/09/28 03:10:05;;;;;;;1999.90;999.90;;;9.40;99.90;;;;;;5069451;28;20481;-73
2022/09/28 03:12:33;;;;;;;1999.90;999.90;;;9.30;99.90;;;;;;5067135;28;20489;-71
2022/09/28 03:15:12;;;;;;;1999.90;999.90;;;9.30;99.90;;;;;;5068310;28;20458;-73
2022/09/28 03:17:39;;;;;;;1999.90;999.90;;;9.30;99.90;;;;;;5073408;28;20457;-71
2022/09/28 03:20:07;;;;;;;1999.90;999.90;;;9.30;99.90;;;;;;5072721;28;20531;-72
2022/09/28 03:22:33;;;;;;;1999.90;999.90;;;9.40;99.90;;;;;;5072200;28;20457;-71
2022/09/28 03:25:00;;;;;;;1999.90;999.90;;;9.40;99.90;;;;;;5069289;28;20462;-73
2022/09/28 03:27:27;;;;;;;1999.90;999.90;;;9.50;99.90;;;;;;5072896;28;20517;-73
2022/09/28 03:29:53;;;;;;;1999.90;999.90;;;9.50;99.90;;;;;;5071424;28;20489;-73
2022/09/28 03:32:21;;;;;;;1999.90;999.90;;;9.50;99.90;;;;;;5073170;28;20473;-73
2022/09/28 03:34:48;;;;;;;1999.90;999.90;;;9.50;99.90;;;;;;5070558;28;20881;-74
2022/09/28 03:37:15;;;;;;;1999.90;999.90;;;9.50;99.90;;;;;;5072478;28;20590;-75
2022/09/28 03:39:42;;;;;;;1999.90;999.90;;;9.50;99.90;;;;;;5071159;28;20526;-73
2022/09/28 03:42:08;;;;;;;1999.90;999.90;;;9.50;99.90;;;;;;5072775;28;20472;-73
2022/09/28 03:44:35;;;;;;;1999.90;999.90;;;9.70;99.90;;;;;;5070999;28;20492;-70
2022/09/28 03:47:01;;;;;;;1999.90;999.90;;;9.60;99.90;;;;;;5071579;28;20462;-73
2022/09/28 03:49:29;;;;;;;1999.90;999.90;;;9.60;99.90;;;;;;5074486;28;20542;-72
2022/09/28 03:51:56;;;;;;;1999.90;999.90;;;9.70;99.90;;;;;;5072446;28;20891;-72
2022/09/28 03:54:23;;;;;;;1999.90;999.90;;;9.70;99.90;;;;;;5071551;28;20473;-70
2022/09/28 03:56:50;;;;;;;1999.90;999.90;;;9.70;99.90;;;;;;5072764;28;20499;-73
2022/09/28 03:59:17;;;;;;;1999.90;999.90;;;9.70;99.90;;;;;;5073040;28;20481;-72
2022/09/28 04:01:44;;;;;;;1999.90;999.90;;;9.70;99.90;;;;;;5070846;28;20498;-72
2022/09/28 04:04:11;;;;;;;1999.90;999.90;;;9.70;99.90;;;;;;5072190;28;20469;-70
2022/09/28 04:06:40;;;;;;;1999.90;999.90;;;9.80;99.90;;;;;;5071419;28;20465;-73
2022/09/28 04:09:06;;;;;;;1999.90;999.90;;;9.60;99.90;;;;;;5071689;28;20489;-73
2022/09/28 04:11:33;;;;;;;1999.90;999.90;;;9.50;99.90;;;;;;5072471;28;20457;-73
2022/09/28 04:14:00;;;;;;;1999.90;999.90;;;9.50;99.90;;;;;;5073291;28;20468;-72
2022/09/28 04:16:27;;;;;;;1999.90;999.90;;;9.50;99.90;;;;;;5071879;28;20460;-72
2022/09/28 04:18:54;;;;;;;1999.90;999.90;;;9.40;99.90;;;;;;5070921;28;20482;-71
2022/09/28 04:21:21;;;;;;;1999.90;999.90;;;9.30;99.90;;;;;;5072674;28;20495;-72
2022/09/28 04:23:49;;;;;;;1999.90;999.90;;;9.30;99.90;;;;;;5069140;28;20511;-73
2022/09/28 04:26:17;;;;;;;1999.90;999.90;;;9.30;99.90;;;;;;5069764;28;20450;-70
2022/09/28 04:31:29;;;;;;;1999.90;999.90;;;9.40;99.90;;;;;;5065397;28;20437;-72
2022/09/28 04:33:57;;;;;;;1999.90;999.90;;;9.30;99.90;;;;;;5071007;28;21962;-72
2022/09/28 04:36:25;;;;;;;1999.90;999.90;;;9.30;99.90;;;;;;5070594;28;20461;-72
2022/09/28 04:38:53;;;;;;;1999.90;999.90;;;9.40;99.90;;;;;;5069564;28;21034;-73
2022/09/28 04:41:21;;;;;;;1999.90;999.90;;;9.30;99.90;;;;;;5071406;28;20521;-72
2022/09/28 04:43:48;;;;;;;1999.90;999.90;;;9.40;99.90;;;;;;5070079;28;20965;-73
2022/09/28 04:46:14;;;;;;;1999.90;999.90;;;9.40;99.90;;;;;;5072135;28;20457;-72
2022/09/28 04:48:41;;;;;;;1999.90;999.90;;;9.40;99.90;;;;;;5071398;28;20489;-70
2022/09/28 04:51:08;;;;;;;1999.90;999.90;;;9.40;99.90;;;;;;5071069;28;20954;-73
2022/09/28 04:53:35;;;;;;;1999.90;999.90;;;9.30;99.90;;;;;;5068253;28;20511;-71
2022/09/28 04:56:04;;;;;;;1999.90;999.90;;;9.20;99.90;;;;;;5071007;28;20465;-71
2022/09/28 04:58:31;;;;;;;1999.90;999.90;;;9.10;99.90;;;;;;5072369;28;20484;-74
2022/09/28 05:01:00;;;;;;;1999.90;999.90;;;9.00;99.90;;;;;;5072845;28;20518;-73
2022/09/28 05:03:28;;;;;;;1999.90;999.90;;;9.00;99.90;;;;;;5069249;28;20461;-72
2022/09/28 05:05:57;;;;;;;1999.90;999.90;;;8.90;99.90;;;;;;5073865;28;20863;-72
2022/09/28 05:08:25;;;;;;;1999.90;999.90;;;8.90;99.90;;;;;;5074407;28;20473;-72
2022/09/28 05:10:58;;;;;;;1999.90;999.90;;;8.90;99.90;;;;;;5074652;28;20512;-72
2022/09/28 05:13:26;;;;;;;1999.90;999.90;;;8.90;99.90;;;;;;5073912;28;20539;-72
2022/09/28 05:15:54;;;;;;;1999.90;999.90;;;9.00;99.90;;;;;;5075020;28;20475;-70
2022/09/28 05:18:21;;;;;;;1999.90;999.90;;;9.00;99.90;;;;;;5073740;28;20870;-69
2022/09/28 05:20:48;;;;;;;1999.90;999.90;;;9.00;99.90;;;;;;5074025;28;20442;-70
2022/09/28 05:23:15;;;;;;;1999.90;999.90;;;9.10;99.90;;;;;;5073397;28;20441;-68
2022/09/28 05:25:42;;;;;;;1999.90;999.90;;;9.20;99.90;;;;;;5073288;28;20460;-71
2022/09/28 05:28:09;;;;;;;1999.90;999.90;;;9.10;99.90;;;;;;5073370;28;20532;-72
2022/09/28 05:30:37;;;;;;;1999.90;999.90;;;9.20;99.90;;;;;;5075135;28;20542;-71
2022/09/28 05:33:04;;;;;;;1999.90;999.90;;;9.20;99.90;;;;;;5073881;28;20449;-66
2022/09/28 05:35:31;;;;;;;1999.90;999.90;;;9.20;99.90;;;;;;5065395;28;20462;-70
2022/09/28 05:38:03;;;;;;;1999.90;999.90;;;9.10;99.90;;;;;;5069983;28;20442;-72
2022/09/28 05:40:30;;;;;;;1999.90;999.90;;;9.10;99.90;;;;;;5072454;28;20540;-71
2022/09/28 05:43:00;;;;;;;1999.90;999.90;;;9.10;99.90;;;;;;5072785;28;20495;-69
2022/09/28 05:45:26;;;;;;;1999.90;999.90;;;9.10;99.90;;;;;;5073025;28;20457;-72
2022/09/28 05:47:55;;;;;;;1999.90;999.90;;;9.00;99.90;;;;;;5074049;28;20441;-72
2022/09/28 05:50:22;;;;;;;1999.90;999.90;;;9.00;99.90;;;;;;5074082;28;20895;-71
2022/09/28 05:52:58;;;;;;;1999.90;999.90;;;9.10;99.90;;;;;;5074360;28;20457;-73
2022/09/28 05:55:25;;;;;;;1999.90;999.90;;;9.00;99.90;;;;;;5072879;28;20463;-72
2022/09/28 05:57:51;;;;;;;1999.90;999.90;;;9.00;99.90;;;;;;5074043;28;20445;-72
2022/09/28 06:00:18;;;;;;;1999.90;999.90;;;9.00;99.90;;;;;;5074053;28;20465;-70
2022/09/28 06:02:54;;;;;;;1999.90;999.90;;;9.10;99.90;;;;;;5074935;28;20453;-70
2022/09/28 06:05:23;;;;;;;1999.90;999.90;;;9.00;99.90;;;;;;5072745;28;20895;-72
2022/09/28 06:07:49;;;;;;;1999.90;999.90;;;9.30;99.90;;;;;;5074134;28;21103;-72
2022/09/28 06:10:16;;;;;;;1999.90;999.90;;;8.90;99.90;;;;;;5073884;28;20481;-73
2022/09/28 06:12:44;;;;;;;1999.90;999.90;;;9.00;99.90;;;;;;5074186;28;20884;-73
2022/09/28 06:15:11;;;;;;;1999.90;999.90;;;9.00;99.90;;;;;;5072322;28;20465;-73
2022/09/28 06:17:37;;;;;;;1999.90;999.90;;;8.90;99.90;;;;;;5074215;28;20827;-72
2022/09/28 06:20:04;;;;;;;1999.90;999.90;;;9.00;99.90;;;;;;5074864;28;20457;-71
2022/09/28 06:22:32;;;;;;;1999.90;999.90;;;9.00;99.90;;;;;;5074208;28;20457;-73
2022/09/28 06:24:59;;;;;;;1999.90;999.90;;;9.10;99.90;;;;;;5072768;28;20538;-73
2022/09/28 06:27:26;;;;;;;1999.90;999.90;;;9.00;99.90;;;;;;5065991;28;21011;-72
2022/09/28 06:29:52;;;;;;;1999.90;999.90;;;9.00;99.90;;;;;;5073842;28;20489;-73
2022/09/28 06:32:19;;;;;;;1999.90;999.90;;;9.00;99.90;;;;;;5074116;28;20452;-73
2022/09/28 06:34:46;;;;;;;1999.90;999.90;;;9.00;99.90;;;;;;5072622;28;20460;-73
2022/09/28 06:37:12;;;;;;;1999.90;999.90;;;8.90;99.90;;;;;;5072928;28;20930;-72
2022/09/28 06:39:40;;;;;;;1999.90;999.90;;;8.90;99.90;;;;;;5073711;28;20544;-70
2022/09/28 06:42:07;;;;;;;1999.90;999.90;;;8.90;99.90;;;;;;5074178;28;20503;-72
2022/09/28 06:44:34;;;;;;;1999.90;999.90;;;8.90;99.90;;;;;;5072556;28;20953;-72
2022/09/28 06:47:02;;;;;;;1999.90;999.90;;;9.00;99.90;;;;;;5074234;28;20476;-72
2022/09/28 06:49:29;;;;;;;1999.90;999.90;;;9.10;99.90;;;;;;5074124;28;21207;-71
2022/09/28 06:51:55;;;;;;;1999.90;999.90;;;9.00;99.90;;;;;;5077287;28;20453;-72
2022/09/28 06:54:24;;;;;;;1999.90;999.90;;;9.00;99.90;;;;;;5071903;28;20463;-70
2022/09/28 06:56:53;;;;;;;1999.90;999.90;;;9.00;99.90;;;;;;5064542;28;20460;-73
2022/09/28 06:59:20;;;;;;;1999.90;999.90;;;9.00;99.90;;;;;;5077563;28;20853;-74
2022/09/28 07:01:46;;;;;;;1999.90;999.90;;;8.90;99.90;;;;;;5077672;28;20457;-72
2022/09/28 07:04:13;;;;;;;1999.90;999.90;;;8.90;99.90;;;;;;5076625;28;20469;-70
2022/09/28 07:06:40;;;;;;;1999.90;999.90;;;9.00;99.90;;;;;;5071206;28;20462;-71
2022/09/28 07:09:06;;;;;;;1999.90;999.90;;;9.00;99.90;;;;;;5074471;28;20518;-73
2022/09/28 07:11:39;;;;;;;1999.90;999.90;;;9.10;99.90;;;;;;5077080;28;20449;-70
2022/09/28 07:14:08;;;;;;;1999.90;999.90;;;9.10;99.90;;;;;;5076746;28;20469;-71
2022/09/28 07:16:35;;;;;;;1999.90;999.90;;;9.20;99.90;;;;;;5062597;28;20523;-73
2022/09/28 07:19:02;;;;;;;1999.90;999.90;;;9.20;99.90;;;;;;5073837;28;20492;-69
2022/09/28 07:21:28;;;;;;;1999.90;999.90;;;9.40;99.90;;;;;;5076568;28;20536;-71
2022/09/28 07:23:55;;;;;;;1999.90;999.90;;;9.40;99.90;;;;;;5075148;28;20487;-71
2022/09/28 07:26:22;;;;;;;1999.90;999.90;;;9.40;99.90;;;;;;5075886;28;20441;-74
2022/09/28 07:28:49;;;;;;;1999.90;999.90;;;9.40;99.90;;;;;;5083249;28;20540;-73
2022/09/28 07:31:17;;;;;;;1999.90;999.90;;;9.40;99.90;;;;;;5084910;28;20492;-72
2022/09/28 07:33:45;;;;;;;1999.90;999.90;;;9.40;99.90;;;;;;5083192;28;20465;-70
2022/09/28 07:36:13;;;;;;;1999.90;999.90;;;9.30;99.90;;;;;;5072744;28;20457;-73
2022/09/28 07:38:40;;;;;;;1999.90;999.90;;;9.20;99.90;;;;;;5075336;28;20477;-71
2022/09/28 07:41:12;;;;;;;1999.90;999.90;;;9.30;99.90;;;;;;5067838;28;20902;-71
2022/09/28 07:43:39;;;;;;;1999.90;999.90;;;9.40;99.90;;;;;;5073554;28;20449;-69
2022/09/28 07:46:10;;;;;;;1999.90;999.90;;;9.50;99.90;;;;;;5070640;28;20465;-70
2022/09/28 07:48:39;;;;;;;1999.90;999.90;;;9.50;99.90;;;;;;5070072;28;20554;-71
2022/09/28 07:51:06;;;;;;;1999.90;999.90;;;9.40;99.90;;;;;;5070857;28;20489;-73
2022/09/28 07:53:33;;;;;;;1999.90;999.90;;;9.40;99.90;;;;;;5073253;28;20457;-73
2022/09/28 07:56:05;;;;;;;1999.90;999.90;;;9.30;99.90;;;;;;5073091;28;20461;-69
2022/09/28 07:58:32;;;;;;;1999.90;999.90;;;9.40;99.90;;;;;;5074135;28;20509;-67
2022/09/28 08:01:03;;;;;;;1999.90;999.90;;;9.40;99.90;;;;;;5072669;28;20465;-70
2022/09/28 08:03:29;;;;;;;1999.90;999.90;;;9.50;99.90;;;;;;5069626;28;20460;-71
2022/09/28 08:05:59;;;;;;;1999.90;999.90;;;9.50;99.90;;;;;;5067594;28;20526;-73
2022/09/28 08:08:28;;;;;;;1999.90;999.90;;;9.50;99.90;;;;;;5067531;28;20485;-71
2022/09/28 08:10:55;;;;;;;1999.90;999.90;;;9.50;99.90;;;;;;5070089;28;20492;-71
2022/09/28 08:13:24;;;;;;;1999.90;999.90;;;9.40;99.90;;;;;;5067936;28;20465;-72
2022/09/28 08:15:51;;;;;;;1999.90;999.90;;;9.60;99.90;;;;;;5067624;28;20472;-71
2022/09/28 08:18:18;;;;;;;1999.90;999.90;;;9.70;99.90;;;;;;5065855;28;21045;-73
2022/09/28 08:23:31;;;;;;;1999.90;999.90;;;9.90;99.90;;;;;;5066642;28;20445;-73
2022/09/28 08:25:58;;;;;;;1999.90;999.90;;;10.00;99.90;;;;;;5069085;28;20526;-73
2022/09/28 08:28:26;;;;;;;1999.90;999.90;;;10.10;99.90;;;;;;5070839;28;20997;-73
2022/09/28 08:30:53;;;;;;;1999.90;999.90;;;10.10;99.90;;;;;;5072667;28;20512;-73
2022/09/28 08:33:21;;;;;;;1999.90;999.90;;;10.20;99.90;;;;;;5068193;28;20493;-73
2022/09/28 08:35:47;;;;;;;1999.90;999.90;;;10.20;99.90;;;;;;5069208;28;20544;-73
2022/09/28 08:38:14;;;;;;;1999.90;999.90;;;10.10;99.90;;;;;;5068122;28;20477;-73
2022/09/28 08:40:54;;;;;;;1999.90;999.90;;;10.20;99.90;;;;;;5068496;28;20462;-74
2022/09/28 08:43:41;;;;;;;1999.90;999.90;;;10.20;99.90;;;;;;5065967;28;20976;-71
2022/09/28 08:46:10;;;;;;;1999.90;999.90;;;10.20;99.90;;;;;;5065552;28;20464;-71
2022/09/28 08:48:47;;;;;;;1999.90;999.90;;;10.20;99.90;;;;;;5066605;28;20481;-73
2022/09/28 08:51:18;;;;;;;1999.90;999.90;;;10.30;99.90;;;;;;5067743;28;20485;-73
2022/09/28 08:53:52;;;;;;;1999.90;999.90;;;10.40;99.90;;;;;;5068805;28;20495;-72
2022/09/28 08:56:28;;;;;;;1999.90;999.90;;;10.40;99.90;;;;;;5068012;28;20470;-70
2022/09/28 08:59:00;;;;;;;1999.90;999.90;;;10.20;99.90;;;;;;5068426;28;20481;-71
2022/09/28 09:01:32;;;;;;;1999.90;999.90;;;10.10;99.90;;;;;;5071461;28;20449;-73
2022/09/28 09:03:58;;;;;;;1999.90;999.90;;;10.10;99.90;;;;;;5066862;28;20437;-73
2022/09/28 09:06:34;;;;;;;1999.90;999.90;;;10.20;99.90;;;;;;5072940;28;20445;-72
2022/09/28 09:09:09;;;;;;;1999.90;999.90;;;10.30;99.90;;;;;;5067742;28;20488;-71
2022/09/28 09:11:57;;;;;;;1999.90;999.90;;;10.40;99.90;;;;;;5071890;28;20480;-72
2022/09/28 09:14:53;;;;;;;1999.90;999.90;;;10.60;99.90;;;;;;5071827;28;20457;-73
2022/09/28 09:17:32;;;;;;;1999.90;999.90;;;10.80;99.90;;;;;;5070966;28;20466;-71
2022/09/28 09:20:06;;;;;;;1999.90;999.90;;;10.90;99.90;;;;;;5070054;28;20542;-70
2022/09/28 09:22:39;;;;;;;1999.90;999.90;;;10.80;99.90;;;;;;5070973;28;20465;-72
2022/09/28 09:25:18;;;;;;;1999.90;999.90;;;10.80;99.90;;;;;;5071935;28;20973;-74
2022/09/28 09:28:04;;;;;;;1999.90;999.90;;;10.80;99.90;;;;;;5072314;28;20461;-70
2022/09/28 09:30:41;;;;;;;1999.90;999.90;;;10.80;99.90;;;;;;5070186;28;20497;-72
2022/09/28 09:33:26;;;;;;;1999.90;999.90;;;11.00;99.90;;;;;;5070259;28;21097;-72
2022/09/28 09:36:10;;;;;;;1999.90;999.90;;;11.10;99.90;;;;;;5067500;28;20453;-72
2022/09/28 09:38:56;;;;;;;1999.90;999.90;;;11.10;99.90;;;;;;5072580;28;20568;-73
2022/09/28 09:41:37;;;;;;;1999.90;999.90;;;11.00;99.90;;;;;;5067486;28;20462;-74
2022/09/28 09:44:22;;;;;;;1999.90;999.90;;;11.00;99.90;;;;;;5070327;28;20472;-73
2022/09/28 09:46:54;;;;;;;1999.90;999.90;;;11.10;99.90;;;;;;5068647;28;20865;-75
2022/09/28 09:49:26;;;;;;;1999.90;999.90;;;11.40;99.90;;;;;;5073603;28;20458;-74
2022/09/28 09:51:57;;;;;;;1999.90;999.90;;;11.30;99.90;;;;;;5070520;28;20519;-74
2022/09/28 09:54:29;;;;;;;1999.90;999.90;;;11.50;99.90;;;;;;5071737;28;21010;-73
2022/09/28 09:57:02;;;;;;;1999.90;999.90;;;11.50;99.90;;;;;;5071013;28;20970;-73
2022/09/28 09:59:35;;;;;;;1999.90;999.90;;;11.40;99.90;;;;;;5060292;28;20482;-72
2022/09/28 10:02:08;;;;;;;1999.90;999.90;;;11.20;99.90;;;;;;5066797;28;20469;-73
2022/09/28 10:04:39;;;;;;;1999.90;999.90;;;11.20;99.90;;;;;;5064057;28;20504;-71
2022/09/28 10:07:13;;;;;;;1999.90;999.90;;;11.10;99.90;;;;;;5070625;28;20535;-73
2022/09/28 10:09:44;;;;;;;1999.90;999.90;;;11.10;99.90;;;;;;5070407;28;20481;-74
2022/09/28 10:12:15;;;;;;;1999.90;999.90;;;11.00;99.90;;;;;;5070028;28;20550;-72
2022/09/28 10:14:43;;;;;;;1999.90;999.90;;;10.90;99.90;;;;;;5070900;28;20453;-73
2022/09/28 10:17:13;;;;;;;1999.90;999.90;;;10.70;99.90;;;;;;5068632;28;21000;-74
2022/09/28 10:19:40;;;;;;;1999.90;999.90;;;10.70;99.90;;;;;;5066253;28;20481;-72
2022/09/28 10:22:07;;;;;;;1999.90;999.90;;;10.60;99.90;;;;;;5065727;28;20461;-73
2022/09/28 10:24:36;;;;;;;1999.90;999.90;;;10.70;99.90;;;;;;5063904;28;20574;-73
2022/09/28 10:27:08;;;;;;;1999.90;999.90;;;10.80;99.90;;;;;;5067529;28;20469;-73
2022/09/28 10:29:42;;;;;;;1999.90;999.90;;;10.90;99.90;;;;;;5067561;28;20492;-73
2022/09/28 10:32:23;;;;;;;1999.90;999.90;;;11.20;99.90;;;;;;5068042;28;20484;-70
2022/09/28 10:34:51;;;;;;;1999.90;999.90;;;11.30;99.90;;;;;;5068337;28;20461;-75
2022/09/28 10:37:19;;;;;;;1999.90;999.90;;;11.50;99.90;;;;;;5073427;28;20488;-74
2022/09/28 10:39:50;;;;;;;1999.90;999.90;;;11.60;99.90;;;;;;5073076;28;20481;-75
2022/09/28 10:42:25;;;;;;;1999.90;999.90;;;11.80;99.90;;;;;;5073182;28;20467;-73
2022/09/28 10:44:55;;;;;;;1999.90;999.90;;;12.20;99.90;;;;;;5067921;28;20456;-74
2022/09/28 10:47:25;;;;;;;1999.90;999.90;;;12.30;99.90;;;;;;5072049;28;20446;-75
2022/09/28 10:49:54;;;;;;;1999.90;999.90;;;12.50;99.90;;;;;;5072069;28;20473;-73
2022/09/28 10:52:40;;;;;;;1999.90;999.90;;;12.60;99.90;;;;;;5072420;28;20907;-75
2022/09/28 10:55:28;;;;;;;1999.90;999.90;;;12.50;99.90;;;;;;5069403;28;20465;-73
2022/09/28 10:57:55;;;;;;;1999.90;999.90;;;12.30;99.90;;;;;;5072339;28;20468;-72
2022/09/28 11:00:33;;;;;;;1999.90;999.90;;;12.40;99.90;;;;;;5073110;28;20542;-75
2022/09/28 11:03:02;;;;;;;1999.90;999.90;;;12.20;99.90;;;;;;5069180;28;20495;-72
2022/09/28 11:05:29;;;;;;;1999.90;999.90;;;12.10;99.90;;;;;;5073542;28;20446;-72
2022/09/28 11:07:58;;;;;;;1999.90;999.90;;;11.70;99.90;;;;;;5074055;28;20490;-73
2022/09/28 11:10:27;;;;;;;1999.90;999.90;;;11.90;99.90;;;;;;5071371;28;20457;-75
2022/09/28 11:12:55;;;;;;;1999.90;999.90;;;11.80;99.90;;;;;;5073377;28;20442;-73
2022/09/28 11:15:26;;;;;;;1999.90;999.90;;;11.80;99.90;;;;;;5072708;28;20465;-73
2022/09/28 11:17:53;;;;;;;1999.90;999.90;;;11.70;99.90;;;;;;5074131;28;20457;-71
2022/09/28 11:20:30;;;;;;;1999.90;999.90;;;11.80;99.90;;;;;;5076248;28;20969;-71
2022/09/28 11:22:58;;;;;;;1999.90;999.90;;;11.80;99.90;;;;;;5069158;28;20470;-70
2022/09/28 11:25:26;;;;;;;1999.90;999.90;;;11.60;99.90;;;;;;5075816;28;20465;-73
2022/09/28 11:28:00;;;;;;;1999.90;999.90;;;11.50;99.90;;;;;;5074591;28;20465;-70
2022/09/28 11:30:31;;;;;;;1999.90;999.90;;;11.30;99.90;;;;;;5074951;28;20457;-69
2022/09/28 11:33:02;;;;;;;1999.90;999.90;;;11.30;99.90;;;;;;5071895;28;20458;-71
2022/09/28 11:35:42;;;;;;;1999.90;999.90;;;11.20;99.90;;;;;;5073084;28;20461;-72
2022/09/28 11:38:23;;;;;;;1999.90;999.90;;;11.20;99.90;;;;;;5074057;28;20465;-72
2022/09/28 11:41:02;;;;;;;1999.90;999.90;;;11.20;99.90;;;;;;5071069;28;21210;-73
2022/09/28 11:43:47;;;;;;;1999.90;999.90;;;11.20;99.90;;;;;;5068704;28;20460;-73
2022/09/28 11:46:25;;;;;;;1999.90;999.90;;;11.30;99.90;;;;;;5071188;28;20496;-68
2022/09/28 11:48:57;;;;;;;1999.90;999.90;;;11.40;99.90;;;;;;5071333;28;20995;-73
2022/09/28 11:51:30;;;;;;;1999.90;999.90;;;11.50;99.90;;;;;;5071813;28;20469;-73
2022/09/28 11:54:02;;;;;;;1999.90;999.90;;;11.50;99.90;;;;;;5083844;28;20461;-72
2022/09/28 11:56:35;;;;;;;1999.90;999.90;;;11.60;99.90;;;;;;5081599;28;20509;-72
2022/09/28 11:59:09;;;;;;;1999.90;999.90;;;11.70;99.90;;;;;;5080146;28;20481;-73
2022/09/28 12:01:42;;;;;;;1999.90;999.90;;;11.80;99.90;;;;;;5069287;28;20468;-73
2022/09/28 12:04:13;;;;;;;1999.90;999.90;;;12.00;99.90;;;;;;5071379;28;20461;-73
2022/09/28 12:06:49;;;;;;;1999.90;999.90;;;12.00;99.90;;;;;;5068165;28;20515;-74
2022/09/28 12:09:21;;;;;;;1999.90;999.90;;;12.30;99.90;;;;;;5070737;28;20489;-74
2022/09/28 12:11:52;;;;;;;1999.90;999.90;;;12.30;99.90;;;;;;5072560;28;20477;-72
2022/09/28 12:14:24;;;;;;;1999.90;999.90;;;12.40;99.90;;;;;;5067902;28;20465;-75
2022/09/28 12:16:56;;;;;;;1999.90;999.90;;;12.50;99.90;;;;;;5071427;28;20491;-72
2022/09/28 12:19:29;;;;;;;1999.90;999.90;;;12.60;99.90;;;;;;5071353;28;20607;-72
2022/09/28 12:22:02;;;;;;;1999.90;999.90;;;12.50;99.90;;;;;;5068261;28;20458;-71
2022/09/28 12:24:33;;;;;;;1999.90;999.90;;;12.50;99.90;;;;;;5067664;28;20457;-75
2022/09/28 12:27:06;;;;;;;1999.90;999.90;;;12.50;99.90;;;;;;5071958;28;20461;-74